createdAt,value
2022-10-23T00:01:20.731Z,87.60
2022-10-23T00:03:51.457Z,86.78
2022-10-23T00:06:19.666Z,87.92
2022-10-23T00:08:50.575Z,87.30
2022-10-23T00:11:20.193Z,87.17
2022-10-23T00:13:48.566Z,85.30
2022-10-23T00:16:17.250Z,85.48
2022-10-23T00:18:45.828Z,86.33
2022-10-23T00:21:14.940Z,86.31
2022-10-23T00:23:43.202Z,85.17
2022-10-23T00:26:15.871Z,87.36
2022-10-23T00:28:45.394Z,87.04
2022-10-23T00:31:13.496Z,86.77
2022-10-23T00:33:42.559Z,87.04
2022-10-23T00:36:12.170Z,86.96
2022-10-23T00:38:40.314Z,86.76
2022-10-23T00:41:08.922Z,86.87
2022-10-23T00:43:54.721Z,86.16
2022-10-23T00:46:22.583Z,86.87
2022-10-23T00:48:50.865Z,86.84
2022-10-23T00:51:18.935Z,86.72
2022-10-23T00:54:00.946Z,86.60
2022-10-23T00:56:39.385Z,86.06
2022-10-23T00:59:08.083Z,85.39
2022-10-23T01:01:36.005Z,85.78
2022-10-23T01:04:05.451Z,85.69
2022-10-23T01:06:39.473Z,85.72
2022-10-23T01:09:10.296Z,85.61
2022-10-23T01:11:51.379Z,84.58
2022-10-23T01:14:19.237Z,84.98
2022-10-23T01:17:01.341Z,85.08
2022-10-23T01:19:49.588Z,84.93
2022-10-23T01:22:36.504Z,84.56
2022-10-23T01:25:18.663Z,84.86
2022-10-23T01:27:51.057Z,84.96
2022-10-23T01:30:18.951Z,84.83
2022-10-23T01:33:22.861Z,84.58
2022-10-23T01:36:03.620Z,84.88
2022-10-23T01:38:38.555Z,84.50
2022-10-23T01:41:24.546Z,84.01
2022-10-23T01:44:02.148Z,84.23
2022-10-23T01:46:38.101Z,84.35
2022-10-23T01:49:10.370Z,84.05
2022-10-23T01:51:39.189Z,84.06
2022-10-23T01:54:10.617Z,83.98
2022-10-23T01:56:41.453Z,83.82
2022-10-23T01:59:12.897Z,83.92
2022-10-23T02:01:44.152Z,83.71
2022-10-23T02:04:15.143Z,84.24
2022-10-23T02:06:43.059Z,83.98
2022-10-23T02:09:11.132Z,83.54
2022-10-23T02:11:44.845Z,83.71
2022-10-23T02:14:29.395Z,83.62
2022-10-23T02:17:00.545Z,83.94
2022-10-23T02:19:34.439Z,83.38
2022-10-23T02:22:14.608Z,83.06
2022-10-23T02:25:02.736Z,83.53
2022-10-23T02:27:35.370Z,83.29
2022-10-23T02:30:10.768Z,83.07
2022-10-23T02:32:41.967Z,82.72
2022-10-23T02:35:12.648Z,82.98
2022-10-23T02:37:41.127Z,83.00
2022-10-23T02:40:10.228Z,83.11
2022-10-23T02:42:52.225Z,83.31
2022-10-23T02:45:20.081Z,83.00
2022-10-23T02:48:10.164Z,82.67
2022-10-23T02:50:44.300Z,82.60
2022-10-23T02:53:18.303Z,82.86
2022-10-23T02:56:08.791Z,82.63
2022-10-23T02:58:43.381Z,82.86
2022-10-23T03:01:20.266Z,82.62
2022-10-23T03:03:53.389Z,82.61
2022-10-23T03:06:22.694Z,82.03
2022-10-23T03:08:58.305Z,82.09
2022-10-23T03:11:26.831Z,82.26
2022-10-23T03:13:56.343Z,81.94
2022-10-23T03:16:24.586Z,82.08
2022-10-23T03:18:54.706Z,82.31
2022-10-23T03:21:22.980Z,82.40
2022-10-23T03:23:53.702Z,82.10
2022-10-23T03:26:28.344Z,81.72
2022-10-23T03:28:56.419Z,81.91
2022-10-23T03:31:24.478Z,82.08
2022-10-23T03:33:56.242Z,81.93
2022-10-23T03:36:24.315Z,81.94
2022-10-23T03:38:53.820Z,82.23
2022-10-23T03:41:21.829Z,82.41
2022-10-23T03:43:49.766Z,82.58
2022-10-23T03:46:17.846Z,82.73
2022-10-23T03:48:46.007Z,82.98
2022-10-23T03:51:13.976Z,82.76
2022-10-23T03:53:41.886Z,82.84
2022-10-23T03:56:09.907Z,82.76
2022-10-23T03:58:37.625Z,82.56
2022-10-23T04:01:05.680Z,82.79
2022-10-23T04:03:33.722Z,82.65
2022-10-23T04:06:02.509Z,82.66
2022-10-23T04:08:30.334Z,82.56
2022-10-23T04:10:58.757Z,82.57
2022-10-23T04:13:43.006Z,82.58
2022-10-23T04:16:10.981Z,82.34
2022-10-23T04:18:40.639Z,82.39
2022-10-23T04:21:10.739Z,82.21
2022-10-23T04:23:39.446Z,82.16
2022-10-23T04:26:12.882Z,82.01
2022-10-23T04:28:41.167Z,81.86
2022-10-23T04:31:08.994Z,81.63
2022-10-23T04:33:40.887Z,81.87
2022-10-23T04:36:09.267Z,81.42
2022-10-23T04:38:37.134Z,81.56
2022-10-23T04:41:06.950Z,81.48
2022-10-23T04:43:35.429Z,81.19
2022-10-23T04:46:04.351Z,81.20
2022-10-23T04:48:32.493Z,81.70
2022-10-23T04:51:20.746Z,81.74
2022-10-23T04:53:59.166Z,81.65
2022-10-23T04:56:44.643Z,81.48
2022-10-23T04:59:18.656Z,81.43
2022-10-23T05:01:46.901Z,81.29
2022-10-23T05:04:15.099Z,80.99
2022-10-23T05:07:15.148Z,80.80
2022-10-23T05:10:09.301Z,80.61
2022-10-23T05:12:56.224Z,80.23
2022-10-23T05:15:24.185Z,80.16
2022-10-23T05:17:55.608Z,80.05
2022-10-23T05:20:28.711Z,80.04
2022-10-23T05:22:58.419Z,79.85
2022-10-23T05:25:26.753Z,79.96
2022-10-23T05:28:04.575Z,79.83
2022-10-23T05:30:33.347Z,79.82
2022-10-23T05:33:02.844Z,79.93
2022-10-23T05:35:38.499Z,79.97
2022-10-23T05:38:07.393Z,80.13
2022-10-23T05:40:35.479Z,80.26
2022-10-23T05:43:07.374Z,80.19
2022-10-23T05:45:50.687Z,80.24
2022-10-23T05:48:33.656Z,80.38
2022-10-23T05:51:23.220Z,80.64
2022-10-23T05:54:13.954Z,80.75
2022-10-23T05:56:55.839Z,80.92
2022-10-23T05:59:32.010Z,80.92
2022-10-23T06:02:21.654Z,81.00
2022-10-23T06:05:00.464Z,81.03
2022-10-23T06:07:46.643Z,80.75
2022-10-23T06:10:14.780Z,81.10
2022-10-23T06:12:45.411Z,81.16
2022-10-23T06:15:16.305Z,80.81
2022-10-23T06:18:00.507Z,81.08
2022-10-23T06:20:28.944Z,81.03
2022-10-23T06:23:05.554Z,80.84
2022-10-23T06:25:53.910Z,80.66
2022-10-23T06:28:25.240Z,80.47
2022-10-23T06:30:53.286Z,80.42
2022-10-23T06:33:21.290Z,79.98
2022-10-23T06:35:49.568Z,79.91
2022-10-23T06:38:17.836Z,79.58
2022-10-23T06:40:53.808Z,79.35
2022-10-23T06:43:27.767Z,79.14
2022-10-23T06:46:14.214Z,78.85
2022-10-23T06:49:01.954Z,78.75
2022-10-23T06:51:33.807Z,79.13
2022-10-23T06:54:02.152Z,79.02
2022-10-23T06:56:48.793Z,78.66
2022-10-23T06:59:19.839Z,78.61
2022-10-23T07:01:48.180Z,78.20
2022-10-23T07:04:17.003Z,77.87
2022-10-23T07:06:45.276Z,77.59
2022-10-23T07:09:13.200Z,77.28
2022-10-23T07:11:53.090Z,77.02
2022-10-23T07:14:24.951Z,76.64
2022-10-23T07:16:53.018Z,76.01
2022-10-23T07:19:21.410Z,75.72
2022-10-23T07:21:52.238Z,75.14
2022-10-23T07:24:40.383Z,72.92
2022-10-23T07:27:17.464Z,71.69
2022-10-23T07:29:45.684Z,69.23
2022-10-23T07:32:13.812Z,68.93
2022-10-23T07:35:00.492Z,68.27
2022-10-23T07:37:34.033Z,68.13
2022-10-23T07:40:04.182Z,68.11
2022-10-23T07:42:32.834Z,68.13
2022-10-23T07:45:00.568Z,68.07
2022-10-23T07:47:28.765Z,68.16
2022-10-23T07:49:56.945Z,68.10
2022-10-23T07:52:24.816Z,68.16
2022-10-23T07:55:09.472Z,68.58
2022-10-23T07:57:40.240Z,68.76
2022-10-23T08:00:26.381Z,69.35
2022-10-23T08:02:59.192Z,69.72
2022-10-23T08:05:27.767Z,69.72
2022-10-23T08:07:59.916Z,69.92
2022-10-23T08:10:28.828Z,70.04
2022-10-23T08:12:57.000Z,70.03
2022-10-23T08:15:37.779Z,69.86
2022-10-23T08:18:10.970Z,69.82
2022-10-23T08:20:45.386Z,69.88
2022-10-23T08:23:14.511Z,69.27
2022-10-23T08:25:42.763Z,68.88
2022-10-23T08:28:12.163Z,69.08
2022-10-23T08:30:47.612Z,69.05
2022-10-23T08:33:15.509Z,68.82
2022-10-23T08:35:44.287Z,68.37
2022-10-23T08:38:12.477Z,68.28
2022-10-23T08:40:45.128Z,68.55
2022-10-23T08:43:52.110Z,69.13
2022-10-23T08:46:31.466Z,68.52
2022-10-23T08:49:25.320Z,68.71
2022-10-23T08:52:02.785Z,67.87
2022-10-23T08:54:30.806Z,67.76
2022-10-23T08:57:03.870Z,67.01
2022-10-23T08:59:33.353Z,66.95
2022-10-23T09:02:04.822Z,66.53
2022-10-23T09:04:32.791Z,66.41
2022-10-23T09:07:00.910Z,66.54
2022-10-23T09:09:34.780Z,65.82
2022-10-23T09:12:13.827Z,65.62
2022-10-23T09:14:55.525Z,65.39
2022-10-23T09:17:23.576Z,65.81
2022-10-23T09:19:55.947Z,65.23
2022-10-23T09:22:23.813Z,64.62
2022-10-23T09:24:53.804Z,64.62
2022-10-23T09:27:22.003Z,65.07
2022-10-23T09:29:52.226Z,65.01
2022-10-23T09:32:21.079Z,65.45
2022-10-23T09:34:53.893Z,64.51
2022-10-23T09:37:26.163Z,62.60
2022-10-23T09:40:12.911Z,62.49
2022-10-23T09:42:50.674Z,63.13
2022-10-23T09:45:31.150Z,61.95
2022-10-23T09:48:13.345Z,60.24
2022-10-23T09:51:07.633Z,58.69
2022-10-23T09:53:40.419Z,58.22
2022-10-23T09:56:25.631Z,53.86
2022-10-23T09:58:58.158Z,52.18
2022-10-23T10:01:27.807Z,50.85
2022-10-23T10:04:02.188Z,48.78
2022-10-23T10:06:32.661Z,47.80
2022-10-23T10:09:02.634Z,49.02
2022-10-23T10:11:42.907Z,49.64
2022-10-23T10:14:31.145Z,49.83
2022-10-23T10:17:05.767Z,50.06
2022-10-23T10:19:33.580Z,47.71
2022-10-23T10:22:20.239Z,47.07
2022-10-23T10:24:52.811Z,46.13
2022-10-23T10:27:39.527Z,45.06
2022-10-23T10:30:19.165Z,44.78
2022-10-23T10:32:49.908Z,44.62
2022-10-23T10:35:37.364Z,44.35
2022-10-23T10:38:26.295Z,44.22
2022-10-23T10:41:13.104Z,44.64
2022-10-23T10:43:40.971Z,45.72
2022-10-23T10:46:25.693Z,46.07
2022-10-23T10:48:57.184Z,46.67
2022-10-23T10:52:07.365Z,46.31
2022-10-23T10:54:48.619Z,46.53
2022-10-23T10:57:38.313Z,47.09
2022-10-23T11:00:14.311Z,47.68
2022-10-23T11:02:54.007Z,47.13
2022-10-23T11:05:25.253Z,46.96
2022-10-23T11:07:59.186Z,47.63
2022-10-23T11:10:28.455Z,45.96
2022-10-23T11:12:57.039Z,46.12
2022-10-23T11:15:28.012Z,45.79
2022-10-23T11:17:58.821Z,45.74
2022-10-23T11:20:26.784Z,45.71
2022-10-23T11:23:13.193Z,46.04
2022-10-23T11:25:58.010Z,46.35
2022-10-23T11:28:34.609Z,46.33
2022-10-23T11:31:07.004Z,46.53
2022-10-23T11:33:52.812Z,46.51
2022-10-23T11:36:32.511Z,45.40
2022-10-23T11:39:13.823Z,44.11
2022-10-23T11:41:49.062Z,44.29
2022-10-23T11:44:40.703Z,43.21
2022-10-23T11:47:27.298Z,40.00
2022-10-23T11:50:07.178Z,40.21
2022-10-23T11:52:45.458Z,40.73
2022-10-23T11:55:24.532Z,39.59
2022-10-23T11:58:10.772Z,39.02
2022-10-23T12:00:51.451Z,38.41
2022-10-23T12:03:22.701Z,38.97
2022-10-23T12:05:57.594Z,38.47
2022-10-23T12:08:27.229Z,36.79
2022-10-23T12:10:55.612Z,36.78
2022-10-23T12:13:29.209Z,37.01
2022-10-23T12:15:59.997Z,35.43
2022-10-23T12:18:29.146Z,34.80
2022-10-23T12:21:00.905Z,34.61
2022-10-23T12:23:36.039Z,32.82
2022-10-23T12:26:09.710Z,32.03
2022-10-23T12:28:43.474Z,32.00
2022-10-23T12:31:14.234Z,31.35
2022-10-23T12:33:42.263Z,31.19
2022-10-23T12:36:12.989Z,30.50
2022-10-23T12:38:47.925Z,29.39
2022-10-23T12:41:24.555Z,28.20
2022-10-23T12:43:55.462Z,28.42
2022-10-23T12:46:34.463Z,26.05
2022-10-23T12:49:04.278Z,26.85
2022-10-23T12:51:33.606Z,26.21
2022-10-23T12:54:02.383Z,26.46
2022-10-23T12:56:37.216Z,26.43
2022-10-23T12:59:06.126Z,27.75
2022-10-23T13:01:34.634Z,28.44
2022-10-23T13:04:08.298Z,28.03
2022-10-23T13:06:36.953Z,28.96
2022-10-23T13:09:06.256Z,29.46
2022-10-23T13:11:40.386Z,30.08
2022-10-23T13:14:13.867Z,30.81
2022-10-23T13:16:41.642Z,31.64
2022-10-23T13:19:22.715Z,32.18
2022-10-23T13:21:50.687Z,33.40
2022-10-23T13:24:22.853Z,33.76
2022-10-23T13:26:50.732Z,34.33
2022-10-23T13:29:21.402Z,35.22
2022-10-23T13:31:49.946Z,36.02
2022-10-23T13:34:21.093Z,36.58
2022-10-23T13:36:56.929Z,36.92
2022-10-23T13:39:26.231Z,37.80
2022-10-23T13:41:54.106Z,38.69
2022-10-23T13:44:23.626Z,39.40
2022-10-23T13:46:52.391Z,39.72
2022-10-23T13:49:20.563Z,40.16
2022-10-23T13:51:48.734Z,41.34
2022-10-23T13:54:19.031Z,42.21
2022-10-23T13:56:47.553Z,42.80
2022-10-23T13:59:15.845Z,42.91
2022-10-23T14:01:44.404Z,43.31
2022-10-23T14:04:13.401Z,43.99
2022-10-23T14:06:42.179Z,44.47
2022-10-23T14:09:14.151Z,44.53
2022-10-23T14:11:42.224Z,44.97
2022-10-23T14:14:10.012Z,45.49
2022-10-23T14:16:37.973Z,46.46
2022-10-23T14:19:06.440Z,47.09
2022-10-23T14:21:34.423Z,47.55
2022-10-23T14:24:02.425Z,48.46
2022-10-23T14:26:30.600Z,49.22
2022-10-23T14:29:02.292Z,49.21
2022-10-23T14:31:34.787Z,49.48
2022-10-23T14:34:02.866Z,49.64
2022-10-23T14:36:38.618Z,49.91
2022-10-23T14:39:18.309Z,50.36
2022-10-23T14:41:46.334Z,51.76
2022-10-23T14:44:14.409Z,51.22
2022-10-23T14:46:42.375Z,51.71
2022-10-23T14:49:10.167Z,52.58
2022-10-23T14:51:38.042Z,52.95
2022-10-23T14:54:07.099Z,53.36
2022-10-23T14:56:39.511Z,53.57
2022-10-23T14:59:08.581Z,54.15
2022-10-23T15:01:42.289Z,54.92
2022-10-23T15:04:14.903Z,55.09
2022-10-23T15:06:43.746Z,55.58
2022-10-23T15:09:11.517Z,56.00
2022-10-23T15:11:39.579Z,56.36
2022-10-23T15:14:08.172Z,55.75
2022-10-23T15:16:41.659Z,55.84
2022-10-23T15:19:17.327Z,56.23
2022-10-23T15:21:47.845Z,56.72
2022-10-23T15:24:18.981Z,56.67
2022-10-23T15:26:47.465Z,56.79
2022-10-23T15:29:15.757Z,57.76
2022-10-23T15:32:01.738Z,58.09
2022-10-23T15:34:30.224Z,58.14
2022-10-23T15:36:58.748Z,58.32
2022-10-23T15:39:28.215Z,58.32
2022-10-23T15:41:57.053Z,58.34
2022-10-23T15:44:26.303Z,58.97
2022-10-23T15:46:57.846Z,60.16
2022-10-23T15:49:26.662Z,60.51
2022-10-23T15:51:54.687Z,60.78
2022-10-23T15:54:22.894Z,61.46
2022-10-23T15:56:52.080Z,61.76
2022-10-23T15:59:21.182Z,62.02
2022-10-23T16:01:49.494Z,62.23
2022-10-23T16:04:18.057Z,62.21
2022-10-23T16:06:46.011Z,62.73
2022-10-23T16:09:14.703Z,62.99
2022-10-23T16:11:43.183Z,62.95
2022-10-23T16:14:12.730Z,62.87
2022-10-23T16:16:40.585Z,62.38
2022-10-23T16:19:09.956Z,62.38
2022-10-23T16:21:38.122Z,62.51
2022-10-23T16:24:07.127Z,62.82
2022-10-23T16:26:35.397Z,62.72
2022-10-23T16:29:05.523Z,62.76
2022-10-23T16:31:33.497Z,63.61
2022-10-23T16:34:02.083Z,65.08
2022-10-23T16:36:30.446Z,65.22
2022-10-23T16:39:17.384Z,65.18
2022-10-23T16:42:04.206Z,65.11
2022-10-23T16:44:42.900Z,65.12
2022-10-23T16:47:10.863Z,65.81
2022-10-23T16:49:38.741Z,65.74
2022-10-23T16:52:06.708Z,65.61
2022-10-23T16:54:34.670Z,65.79
2022-10-23T16:57:02.540Z,67.87
2022-10-23T16:59:30.267Z,68.59
2022-10-23T17:01:58.520Z,68.60
2022-10-23T17:06:50.225Z,68.29
2022-10-23T17:09:19.428Z,68.88
2022-10-23T17:11:48.313Z,68.64
2022-10-23T17:14:19.404Z,69.62
2022-10-23T17:16:50.185Z,69.47
2022-10-23T17:22:11.327Z,69.27
2022-10-23T17:24:40.929Z,69.41
2022-10-23T17:27:09.015Z,70.01
2022-10-23T17:29:37.088Z,69.61
2022-10-23T17:32:06.201Z,69.90
2022-10-23T17:34:34.337Z,70.25
2022-10-23T17:37:02.510Z,72.69
2022-10-23T17:39:30.489Z,72.22
2022-10-23T17:41:58.766Z,73.02
2022-10-23T17:44:26.897Z,71.60
2022-10-23T17:46:55.823Z,71.41
2022-10-23T17:49:24.757Z,71.93
2022-10-23T17:51:57.595Z,72.92
2022-10-23T17:54:26.665Z,73.86
2022-10-23T17:56:55.704Z,76.41
2022-10-23T17:59:24.280Z,76.20
2022-10-23T18:01:52.673Z,75.66
2022-10-23T18:04:21.567Z,75.11
2022-10-23T18:06:52.876Z,77.11
2022-10-23T18:09:23.022Z,77.15
2022-10-23T18:11:52.986Z,76.96
2022-10-23T18:14:22.148Z,75.93
2022-10-23T18:16:52.585Z,75.42
2022-10-23T18:19:20.829Z,74.78
2022-10-23T18:21:49.024Z,74.03
2022-10-23T18:24:17.805Z,73.60
2022-10-23T18:26:47.868Z,73.47
2022-10-23T18:29:17.518Z,73.87
2022-10-23T18:31:48.242Z,73.81
2022-10-23T18:34:20.179Z,74.47
2022-10-23T18:36:49.528Z,74.71
2022-10-23T18:39:22.436Z,77.16
2022-10-23T18:41:53.964Z,77.69
2022-10-23T18:44:23.680Z,76.62
2022-10-23T18:46:51.955Z,77.26
2022-10-23T18:49:20.436Z,78.46
2022-10-23T18:51:50.034Z,78.29
2022-10-23T18:54:20.105Z,77.91
2022-10-23T18:56:48.328Z,77.75
2022-10-23T18:59:18.969Z,77.26
2022-10-23T19:01:47.547Z,77.72
2022-10-23T19:04:18.016Z,77.32
2022-10-23T19:06:47.839Z,77.51
2022-10-23T19:09:16.943Z,77.30
2022-10-23T19:11:45.540Z,76.34
2022-10-23T19:14:13.543Z,75.94
2022-10-23T19:17:04.144Z,75.21
2022-10-23T19:19:39.787Z,74.73
2022-10-23T19:22:11.201Z,74.68
2022-10-23T19:24:47.099Z,74.24
2022-10-23T19:27:15.377Z,74.31
2022-10-23T19:29:46.725Z,74.02
2022-10-23T19:32:15.206Z,73.34
2022-10-23T19:34:44.105Z,73.32
2022-10-23T19:37:11.953Z,73.29
2022-10-23T19:39:39.935Z,73.29
2022-10-23T19:42:09.192Z,74.31
2022-10-23T19:44:37.300Z,74.34
2022-10-23T19:47:05.371Z,73.42
2022-10-23T19:49:33.451Z,73.29
2022-10-23T19:52:01.496Z,73.60
2022-10-23T19:54:29.691Z,73.81
2022-10-23T19:56:57.744Z,74.34
2022-10-23T19:59:26.127Z,74.75
2022-10-23T20:01:54.160Z,74.72
2022-10-23T20:04:22.119Z,74.94
2022-10-23T20:06:50.237Z,74.97
2022-10-23T20:09:18.305Z,74.95
2022-10-23T20:11:46.269Z,74.75
2022-10-23T20:14:14.245Z,74.59
2022-10-23T20:16:45.282Z,75.14
2022-10-23T20:21:49.948Z,76.25
2022-10-23T20:24:19.958Z,76.66
2022-10-23T20:26:51.971Z,77.40
2022-10-23T20:29:20.657Z,77.71
2022-10-23T20:31:48.640Z,78.72
2022-10-23T20:34:17.570Z,78.22
2022-10-23T20:36:48.300Z,78.37
2022-10-23T20:39:19.972Z,81.43
2022-10-23T20:41:48.258Z,80.11
2022-10-23T20:46:50.722Z,78.94
2022-10-23T20:49:20.023Z,79.35
2022-10-23T20:51:56.018Z,78.70
2022-10-23T20:54:26.928Z,79.46
2022-10-23T20:56:57.197Z,79.00
2022-10-23T20:59:25.622Z,80.41
2022-10-23T21:01:55.507Z,81.23
2022-10-23T21:04:27.572Z,80.18
2022-10-23T21:07:09.563Z,80.47
2022-10-23T21:09:40.287Z,79.88
2022-10-23T21:12:09.067Z,79.39
2022-10-23T21:14:37.198Z,79.18
2022-10-23T21:17:05.610Z,79.05
2022-10-23T21:19:33.755Z,79.55
2022-10-23T21:22:01.927Z,79.84
2022-10-23T21:24:30.015Z,80.01
2022-10-23T21:26:57.965Z,80.31
2022-10-23T21:29:26.038Z,79.90
2022-10-23T21:31:56.059Z,79.72
2022-10-23T21:34:26.215Z,79.39
2022-10-23T21:37:12.025Z,79.12
2022-10-23T21:39:44.552Z,79.12
2022-10-23T21:42:14.098Z,80.51
2022-10-23T21:44:42.337Z,79.50
2022-10-23T21:47:13.259Z,79.09
2022-10-23T21:49:41.328Z,78.93
2022-10-23T21:52:09.715Z,79.08
2022-10-23T21:54:37.784Z,79.25
2022-10-23T21:57:13.017Z,79.09
2022-10-23T21:59:41.813Z,79.44
2022-10-23T22:02:10.448Z,79.38
2022-10-23T22:04:39.088Z,79.42
2022-10-23T22:07:07.559Z,79.86
2022-10-23T22:09:35.639Z,79.93
2022-10-23T22:12:03.812Z,81.18
2022-10-23T22:14:31.821Z,81.81
2022-10-23T22:16:59.745Z,81.79
2022-10-23T22:19:27.926Z,81.65
2022-10-23T22:21:56.203Z,82.01
2022-10-23T22:24:24.985Z,81.94
2022-10-23T22:26:55.819Z,81.69
2022-10-23T22:29:27.949Z,81.85
2022-10-23T22:31:56.895Z,82.03
2022-10-23T22:34:48.362Z,82.26
2022-10-23T22:37:16.071Z,81.74
2022-10-23T22:39:44.011Z,81.68
2022-10-23T22:42:12.210Z,81.93
2022-10-23T22:44:40.188Z,82.73
2022-10-23T22:47:08.178Z,82.48
2022-10-23T22:49:36.031Z,82.59
2022-10-23T22:52:04.141Z,82.57
2022-10-23T22:54:32.263Z,82.45
2022-10-23T22:57:00.195Z,82.18
2022-10-23T22:59:28.199Z,81.74
2022-10-23T23:01:56.178Z,81.16
2022-10-23T23:04:39.713Z,81.00
2022-10-23T23:07:10.778Z,82.36
2022-10-23T23:09:42.103Z,82.02
2022-10-23T23:12:12.114Z,81.72
2022-10-23T23:14:41.141Z,81.51
2022-10-23T23:17:09.811Z,81.28
2022-10-23T23:19:38.490Z,81.35
2022-10-23T23:22:06.653Z,81.22
2022-10-23T23:24:34.835Z,81.13
2022-10-23T23:27:02.804Z,80.93
2022-10-23T23:29:31.483Z,80.86
2022-10-23T23:32:00.273Z,80.60
2022-10-23T23:34:28.869Z,80.32
2022-10-23T23:36:56.903Z,80.15
2022-10-23T23:39:26.249Z,79.76
2022-10-23T23:41:54.207Z,79.89
2022-10-23T23:44:22.144Z,79.93
2022-10-23T23:46:50.029Z,81.04
2022-10-23T23:49:18.107Z,80.66
2022-10-23T23:51:45.988Z,80.79
2022-10-23T23:54:14.053Z,81.24
2022-10-23T23:56:42.144Z,81.47
2022-10-23T23:59:10.099Z,81.34
